createdAt,value
2019-05-22T00:02:36.898Z,97.21
2019-05-22T00:05:13.749Z,97.41
2019-05-22T00:07:43.970Z,97.43
2019-05-22T00:10:18.856Z,97.43
2019-05-22T00:12:48.452Z,97.33
2019-05-22T00:15:17.979Z,97.54
2019-05-22T00:17:48.497Z,97.83
2019-05-22T00:20:19.534Z,98.18
2019-05-22T00:22:50.678Z,98.12
2019-05-22T00:25:20.210Z,98.16
2019-05-22T00:27:49.212Z,98.13
2019-05-22T00:30:19.743Z,97.94
2019-05-22T00:32:49.757Z,97.88
2019-05-22T00:35:20.808Z,97.95
2019-05-22T00:37:50.184Z,97.92
2019-05-22T00:40:19.827Z,97.90
2019-05-22T00:43:03.247Z,97.80
2019-05-22T00:45:23.880Z,97.59
2019-05-22T00:47:52.433Z,97.54
2019-05-22T00:50:27.737Z,97.78
2019-05-22T00:53:08.963Z,97.75
2019-05-22T00:55:41.191Z,97.84
2019-05-22T00:58:12.937Z,97.75
2019-05-22T01:01:00.102Z,97.70
2019-05-22T01:03:31.439Z,97.88
2019-05-22T01:06:00.670Z,98.08
2019-05-22T01:08:30.486Z,98.14
2019-05-22T01:11:00.311Z,98.08
2019-05-22T01:13:34.528Z,98.36
2019-05-22T01:16:06.578Z,98.42
2019-05-22T01:18:37.614Z,98.44
2019-05-22T01:21:07.278Z,98.18
2019-05-22T01:23:38.428Z,98.02
2019-05-22T01:26:08.629Z,98.06
2019-05-22T01:28:38.072Z,97.78
2019-05-22T01:31:12.931Z,97.38
2019-05-22T01:33:46.813Z,97.51
2019-05-22T01:36:32.742Z,97.43
2019-05-22T01:39:15.707Z,97.23
2019-05-22T01:41:49.545Z,97.32
2019-05-22T01:44:20.368Z,97.38
2019-05-22T01:46:49.932Z,97.26
2019-05-22T01:49:21.569Z,97.37
2019-05-22T01:51:50.211Z,97.66
2019-05-22T01:54:18.727Z,97.33
2019-05-22T01:56:50.272Z,96.74
2019-05-22T01:59:19.933Z,96.01
2019-05-22T02:01:49.071Z,95.66
2019-05-22T02:04:18.593Z,95.62
2019-05-22T02:06:47.508Z,94.98
2019-05-22T02:09:26.404Z,95.02
2019-05-22T02:12:09.340Z,95.23
2019-05-22T02:14:43.848Z,95.42
2019-05-22T02:17:14.996Z,95.30
2019-05-22T02:19:43.737Z,94.28
2019-05-22T02:22:14.560Z,94.47
2019-05-22T02:24:45.951Z,95.21
2019-05-22T02:27:16.206Z,94.57
2019-05-22T02:29:46.339Z,94.65
2019-05-22T02:32:16.764Z,93.92
2019-05-22T02:34:45.772Z,93.51
2019-05-22T02:37:15.102Z,93.84
2019-05-22T02:39:43.907Z,92.75
2019-05-22T02:42:18.365Z,92.68
2019-05-22T02:44:47.983Z,92.65
2019-05-22T02:47:20.831Z,92.47
2019-05-22T02:49:49.442Z,92.78
2019-05-22T02:52:19.596Z,92.87
2019-05-22T02:54:49.190Z,92.22
2019-05-22T02:57:18.534Z,92.12
2019-05-22T02:59:47.755Z,91.85
2019-05-22T03:02:17.370Z,91.74
2019-05-22T03:04:53.969Z,91.57
2019-05-22T03:07:23.961Z,91.98
2019-05-22T03:09:53.240Z,91.60
2019-05-22T03:12:23.962Z,91.74
2019-05-22T03:14:53.770Z,92.02
2019-05-22T03:17:27.596Z,92.10
2019-05-22T03:19:57.625Z,91.65
2019-05-22T03:22:33.861Z,91.67
2019-05-22T03:25:07.952Z,91.68
2019-05-22T03:27:47.170Z,91.63
2019-05-22T03:30:23.798Z,91.99
2019-05-22T03:32:53.688Z,92.74
2019-05-22T03:35:25.445Z,92.88
2019-05-22T03:37:56.210Z,92.18
2019-05-22T03:40:26.224Z,91.68
2019-05-22T03:42:56.581Z,92.70
2019-05-22T03:45:25.301Z,92.76
2019-05-22T03:47:56.205Z,92.18
2019-05-22T03:50:25.645Z,92.59
2019-05-22T03:52:57.298Z,92.67
2019-05-22T03:55:26.686Z,92.26
2019-05-22T03:57:55.673Z,93.21
2019-05-22T04:00:26.489Z,92.34
2019-05-22T04:02:56.054Z,92.47
2019-05-22T04:05:25.601Z,92.75
2019-05-22T04:07:56.374Z,92.91
2019-05-22T04:10:28.322Z,93.10
2019-05-22T04:12:57.230Z,92.44
2019-05-22T04:15:27.064Z,92.40
2019-05-22T04:18:04.251Z,92.79
2019-05-22T04:20:32.983Z,93.31
2019-05-22T04:23:01.508Z,92.90
2019-05-22T04:25:30.732Z,92.70
2019-05-22T04:27:59.652Z,93.27
2019-05-22T04:30:28.970Z,92.81
2019-05-22T04:32:59.680Z,92.09
2019-05-22T04:35:28.712Z,92.16
2019-05-22T04:37:58.037Z,91.49
2019-05-22T04:40:48.417Z,91.28
2019-05-22T04:43:20.893Z,90.83
2019-05-22T04:45:50.025Z,91.47
2019-05-22T04:48:19.408Z,92.16
2019-05-22T04:50:49.554Z,91.65
2019-05-22T04:53:18.844Z,91.73
2019-05-22T04:55:47.794Z,91.42
2019-05-22T04:58:21.289Z,90.85
2019-05-22T05:00:49.926Z,91.02
2019-05-22T05:03:20.032Z,91.04
2019-05-22T05:05:51.265Z,91.45
2019-05-22T05:08:19.901Z,91.70
2019-05-22T05:10:51.787Z,90.91
2019-05-22T05:13:20.738Z,89.77
2019-05-22T05:15:49.356Z,89.60
2019-05-22T05:18:17.983Z,90.37
2019-05-22T05:20:46.909Z,88.73
2019-05-22T05:23:15.726Z,89.06
2019-05-22T05:25:44.550Z,88.77
2019-05-22T05:28:15.289Z,88.31
2019-05-22T05:30:44.608Z,87.80
2019-05-22T05:33:13.639Z,86.78
2019-05-22T05:35:43.065Z,86.92
2019-05-22T05:38:13.284Z,85.53
2019-05-22T05:40:42.682Z,85.15
2019-05-22T05:43:14.793Z,86.08
2019-05-22T05:45:45.891Z,85.66
2019-05-22T05:48:17.017Z,84.40
2019-05-22T05:51:35.276Z,83.28
2019-05-22T05:54:14.812Z,83.51
2019-05-22T05:56:45.576Z,82.79
2019-05-22T05:59:14.758Z,84.12
2019-05-22T06:01:50.295Z,83.21
2019-05-22T06:04:34.786Z,82.48
2019-05-22T06:07:23.760Z,81.53
2019-05-22T06:10:23.218Z,82.93
2019-05-22T06:12:51.972Z,80.45
2019-05-22T06:15:23.857Z,80.69
2019-05-22T06:18:40.655Z,80.56
2019-05-22T06:21:10.284Z,80.30
2019-05-22T06:24:34.742Z,79.45
2019-05-22T06:27:08.254Z,80.34
2019-05-22T06:29:46.690Z,80.41
2019-05-22T06:32:54.102Z,79.06
2019-05-22T06:35:26.074Z,79.59
2019-05-22T06:38:16.297Z,78.24
2019-05-22T06:40:45.115Z,79.35
2019-05-22T06:43:59.180Z,79.63
2019-05-22T06:46:44.871Z,78.77
2019-05-22T06:49:55.966Z,79.38
2019-05-22T06:52:25.009Z,79.08
2019-05-22T06:54:54.774Z,78.15
2019-05-22T06:57:32.672Z,77.84
2019-05-22T07:00:14.313Z,79.46
2019-05-22T07:02:39.612Z,77.63
2019-05-22T07:05:09.149Z,77.50
2019-05-22T07:07:38.088Z,78.38
2019-05-22T07:10:11.876Z,78.25
2019-05-22T07:12:42.654Z,75.74
2019-05-22T07:15:33.430Z,77.17
2019-05-22T07:18:03.472Z,74.66
2019-05-22T07:20:34.846Z,75.69
2019-05-22T07:23:06.128Z,75.46
2019-05-22T07:25:35.755Z,73.00
2019-05-22T07:28:05.345Z,76.11
2019-05-22T07:30:34.457Z,72.40
2019-05-22T07:33:03.913Z,72.83
2019-05-22T07:35:49.749Z,73.20
2019-05-22T07:38:03.500Z,72.66
2019-05-22T07:40:32.924Z,72.58
2019-05-22T07:43:01.549Z,72.11
2019-05-22T07:45:31.769Z,72.46
2019-05-22T07:48:00.775Z,73.43
2019-05-22T07:50:33.006Z,72.24
2019-05-22T07:53:03.289Z,73.64
2019-05-22T07:55:32.599Z,72.02
2019-05-22T07:58:08.663Z,72.93
2019-05-22T08:00:49.336Z,73.13
2019-05-22T08:03:18.998Z,73.32
2019-05-22T08:05:52.999Z,69.67
2019-05-22T08:08:23.068Z,71.56
2019-05-22T08:10:53.641Z,69.46
2019-05-22T08:13:23.117Z,70.24
2019-05-22T08:15:52.012Z,69.83
2019-05-22T08:18:21.165Z,70.30
2019-05-22T08:20:49.886Z,70.14
2019-05-22T08:23:19.025Z,69.39
2019-05-22T08:25:47.863Z,69.64
2019-05-22T08:28:18.370Z,68.93
2019-05-22T08:30:48.465Z,68.15
2019-05-22T08:33:18.505Z,67.47
2019-05-22T08:35:47.552Z,68.03
2019-05-22T08:38:16.681Z,69.05
2019-05-22T08:40:46.734Z,68.51
2019-05-22T08:43:16.571Z,67.35
2019-05-22T08:45:45.990Z,66.10
2019-05-22T08:48:16.040Z,69.70
2019-05-22T08:50:45.828Z,68.49
2019-05-22T08:53:15.852Z,68.03
2019-05-22T08:55:44.991Z,68.24
2019-05-22T08:58:14.915Z,68.52
2019-05-22T09:00:44.406Z,69.91
2019-05-22T09:03:13.945Z,66.42
2019-05-22T09:05:43.553Z,67.31
2019-05-22T09:08:12.287Z,66.25
2019-05-22T09:10:41.504Z,64.06
2019-05-22T09:13:10.119Z,63.72
2019-05-22T09:15:39.560Z,61.23
2019-05-22T09:18:08.613Z,61.33
2019-05-22T09:20:48.873Z,61.07
2019-05-22T09:23:11.217Z,60.62
2019-05-22T09:25:40.273Z,61.21
2019-05-22T09:28:08.921Z,57.64
2019-05-22T09:30:37.539Z,59.64
2019-05-22T09:33:08.084Z,59.17
2019-05-22T09:35:36.820Z,57.93
2019-05-22T09:38:05.560Z,54.59
2019-05-22T09:40:34.590Z,54.88
2019-05-22T09:43:04.513Z,53.14
2019-05-22T09:45:35.266Z,48.31
2019-05-22T09:48:04.818Z,51.03
2019-05-22T09:50:34.183Z,55.97
2019-05-22T09:53:05.644Z,55.37
2019-05-22T09:55:35.428Z,52.20
2019-05-22T09:58:05.047Z,49.89
2019-05-22T10:00:33.775Z,48.58
2019-05-22T10:03:03.345Z,47.65
2019-05-22T10:05:32.195Z,47.65
2019-05-22T10:08:01.894Z,47.61
2019-05-22T10:10:31.049Z,53.25
2019-05-22T10:12:59.665Z,51.42
2019-05-22T10:15:29.325Z,44.54
2019-05-22T10:17:58.433Z,45.82
2019-05-22T10:20:27.053Z,40.48
2019-05-22T10:22:56.499Z,46.76
2019-05-22T10:25:25.616Z,47.99
2019-05-22T10:27:54.237Z,46.53
2019-05-22T10:30:23.960Z,46.53
2019-05-22T10:32:52.794Z,45.27
2019-05-22T10:35:24.608Z,43.45
2019-05-22T10:37:54.466Z,48.42
2019-05-22T10:40:23.592Z,44.74
2019-05-22T10:42:52.526Z,41.54
2019-05-22T10:45:21.306Z,46.85
2019-05-22T10:47:50.412Z,48.42
2019-05-22T10:50:19.247Z,47.98
2019-05-22T10:52:53.711Z,46.02
2019-05-22T10:55:19.852Z,42.37
2019-05-22T10:57:48.511Z,42.02
2019-05-22T11:00:18.423Z,38.23
2019-05-22T11:02:48.301Z,39.77
2019-05-22T11:05:19.103Z,37.81
2019-05-22T11:07:48.432Z,40.52
2019-05-22T11:10:19.277Z,40.68
2019-05-22T11:12:48.298Z,38.26
2019-05-22T11:15:17.035Z,40.93
2019-05-22T11:17:45.942Z,38.97
2019-05-22T11:20:15.972Z,43.21
2019-05-22T11:22:44.644Z,39.47
2019-05-22T11:25:14.050Z,36.35
2019-05-22T11:27:43.137Z,38.72
2019-05-22T11:30:14.283Z,42.43
2019-05-22T11:32:43.407Z,44.38
2019-05-22T11:35:13.310Z,42.88
2019-05-22T11:37:42.049Z,41.26
2019-05-22T11:40:11.451Z,37.47
2019-05-22T11:42:40.849Z,37.15
2019-05-22T11:45:11.383Z,37.44
2019-05-22T11:47:40.203Z,32.16
2019-05-22T11:50:10.247Z,35.06
2019-05-22T11:52:40.015Z,35.77
2019-05-22T11:55:10.252Z,35.78
2019-05-22T11:57:40.357Z,40.90
2019-05-22T12:00:10.625Z,44.30
2019-05-22T12:02:39.571Z,40.32
2019-05-22T12:05:10.792Z,40.25
2019-05-22T12:07:40.322Z,38.07
2019-05-22T12:10:09.965Z,37.63
2019-05-22T12:12:39.790Z,35.74
2019-05-22T12:15:10.949Z,34.86
2019-05-22T12:17:39.918Z,37.79
2019-05-22T12:20:09.540Z,37.48
2019-05-22T12:22:38.408Z,39.61
2019-05-22T12:25:09.367Z,38.68
2019-05-22T12:27:38.513Z,39.50
2019-05-22T12:30:09.236Z,36.81
2019-05-22T12:32:38.766Z,36.48
2019-05-22T12:35:07.755Z,36.39
2019-05-22T12:37:36.574Z,39.95
2019-05-22T12:40:05.738Z,33.99
2019-05-22T12:42:35.049Z,34.36
2019-05-22T12:45:06.446Z,34.97
2019-05-22T12:47:35.989Z,36.15
2019-05-22T12:50:05.356Z,36.15
2019-05-22T12:52:34.360Z,36.39
2019-05-22T12:55:03.834Z,39.25
2019-05-22T12:57:32.981Z,38.39
2019-05-22T13:00:03.007Z,39.89
2019-05-22T13:02:32.925Z,37.01
2019-05-22T13:05:01.957Z,39.13
2019-05-22T13:07:30.945Z,36.89
2019-05-22T13:09:59.679Z,33.96
2019-05-22T13:12:29.397Z,33.33
2019-05-22T13:15:09.139Z,32.67
2019-05-22T13:17:31.669Z,30.94
2019-05-22T13:20:01.984Z,30.94
2019-05-22T13:22:32.538Z,30.17
2019-05-22T13:25:02.087Z,29.54
2019-05-22T13:27:32.912Z,31.76
2019-05-22T13:30:03.544Z,36.12
2019-05-22T13:32:34.636Z,39.53
2019-05-22T13:35:04.080Z,41.61
2019-05-22T13:37:32.780Z,42.05
2019-05-22T13:40:01.849Z,39.91
2019-05-22T13:42:30.560Z,41.73
2019-05-22T13:44:59.368Z,40.85
2019-05-22T13:47:28.045Z,41.43
2019-05-22T13:49:56.791Z,41.10
2019-05-22T13:52:25.505Z,40.96
2019-05-22T13:54:55.745Z,36.19
2019-05-22T13:57:25.306Z,32.95
2019-05-22T13:59:54.019Z,36.26
2019-05-22T14:02:26.956Z,38.39
2019-05-22T14:04:53.923Z,40.09
2019-05-22T14:07:22.668Z,40.24
2019-05-22T14:09:52.186Z,41.69
2019-05-22T14:12:20.937Z,38.20
2019-05-22T14:14:50.364Z,35.40
2019-05-22T14:17:18.957Z,35.03
2019-05-22T14:19:47.824Z,34.98
2019-05-22T14:22:16.545Z,35.20
2019-05-22T14:24:45.259Z,39.91
2019-05-22T14:27:13.997Z,36.29
2019-05-22T14:29:42.813Z,33.66
2019-05-22T14:32:12.622Z,34.25
2019-05-22T14:34:41.375Z,33.76
2019-05-22T14:37:12.068Z,33.52
2019-05-22T14:39:41.177Z,33.80
2019-05-22T14:42:11.218Z,37.34
2019-05-22T14:44:39.932Z,36.75
2019-05-22T14:47:14.568Z,36.25
2019-05-22T14:49:39.692Z,36.88
2019-05-22T14:52:09.014Z,33.70
2019-05-22T14:54:37.708Z,32.42
2019-05-22T14:57:07.223Z,35.51
2019-05-22T14:59:36.344Z,35.51
2019-05-22T15:02:05.450Z,34.35
2019-05-22T15:04:34.405Z,36.57
2019-05-22T15:07:03.712Z,37.36
2019-05-22T15:09:32.520Z,37.28
2019-05-22T15:12:01.521Z,37.83
2019-05-22T15:14:30.128Z,35.57
2019-05-22T15:16:58.844Z,35.12
2019-05-22T15:19:27.491Z,33.06
2019-05-22T15:21:56.234Z,34.59
2019-05-22T15:24:25.085Z,31.76
2019-05-22T15:26:54.872Z,34.00
2019-05-22T15:29:23.788Z,33.85
2019-05-22T15:31:53.307Z,34.47
2019-05-22T15:34:23.339Z,35.52
2019-05-22T15:36:52.036Z,34.51
2019-05-22T15:39:22.855Z,34.13
2019-05-22T15:41:52.014Z,32.69
2019-05-22T15:44:21.748Z,32.36
2019-05-22T15:46:51.152Z,33.65
2019-05-22T15:49:20.408Z,34.10
2019-05-22T15:51:49.531Z,34.27
2019-05-22T15:54:18.458Z,34.46
2019-05-22T15:56:47.573Z,34.77
2019-05-22T15:59:16.396Z,34.77
2019-05-22T16:01:45.519Z,34.81
2019-05-22T16:04:15.851Z,35.22
2019-05-22T16:06:45.459Z,35.25
2019-05-22T16:09:16.731Z,34.77
2019-05-22T16:11:50.178Z,35.14
2019-05-22T16:14:19.192Z,34.71
2019-05-22T16:16:50.210Z,33.92
2019-05-22T16:19:22.608Z,35.54
2019-05-22T16:21:54.964Z,36.17
2019-05-22T16:24:24.102Z,36.17
2019-05-22T16:26:52.747Z,37.22
2019-05-22T16:29:23.273Z,36.90
2019-05-22T16:31:54.798Z,35.89
2019-05-22T16:34:23.614Z,35.90
2019-05-22T16:36:53.608Z,37.03
2019-05-22T16:39:23.119Z,37.46
2019-05-22T16:41:52.674Z,35.84
2019-05-22T16:44:21.386Z,35.84
2019-05-22T16:46:50.622Z,36.70
2019-05-22T16:49:19.952Z,36.74
2019-05-22T16:51:49.369Z,37.27
2019-05-22T16:54:20.732Z,37.18
2019-05-22T16:56:48.945Z,37.10
2019-05-22T16:59:18.178Z,37.29
2019-05-22T17:01:58.879Z,37.29
2019-05-22T17:04:17.969Z,38.60
2019-05-22T17:06:46.888Z,38.60
2019-05-22T17:09:18.270Z,38.74
2019-05-22T17:11:47.320Z,37.20
2019-05-22T17:14:18.955Z,37.99
2019-05-22T17:16:48.497Z,39.38
2019-05-22T17:19:26.667Z,39.31
2019-05-22T17:21:48.286Z,41.01
2019-05-22T17:24:19.202Z,41.78
2019-05-22T17:26:50.951Z,40.32
2019-05-22T17:29:19.872Z,41.44
2019-05-22T17:31:48.981Z,41.84
2019-05-22T17:34:37.033Z,41.78
2019-05-22T17:37:12.997Z,41.45
2019-05-22T17:39:45.880Z,42.09
2019-05-22T17:42:16.630Z,41.55
2019-05-22T17:44:47.000Z,41.02
2019-05-22T17:47:18.562Z,41.31
2019-05-22T17:49:47.886Z,41.67
2019-05-22T17:52:18.002Z,42.57
2019-05-22T17:54:48.658Z,43.59
2019-05-22T17:57:18.842Z,44.14
2019-05-22T17:59:47.553Z,43.32
2019-05-22T18:02:18.925Z,43.63
2019-05-22T18:04:48.329Z,44.10
2019-05-22T18:07:17.049Z,44.28
2019-05-22T18:09:46.174Z,44.77
2019-05-22T18:12:15.228Z,45.48
2019-05-22T18:14:45.928Z,44.89
2019-05-22T18:17:15.147Z,44.67
2019-05-22T18:19:44.284Z,45.78
2019-05-22T18:22:13.812Z,45.37
2019-05-22T18:24:42.378Z,45.27
2019-05-22T18:27:10.982Z,45.86
2019-05-22T18:29:39.601Z,46.70
2019-05-22T18:32:09.843Z,47.44
2019-05-22T18:34:38.460Z,47.77
2019-05-22T18:37:07.203Z,48.11
2019-05-22T18:39:36.335Z,48.60
2019-05-22T18:42:05.290Z,49.40
2019-05-22T18:44:33.797Z,50.03
2019-05-22T18:47:03.439Z,50.28
2019-05-22T18:49:31.952Z,51.00
2019-05-22T18:52:00.918Z,51.84
2019-05-22T18:54:29.627Z,51.79
2019-05-22T18:56:58.199Z,51.51
2019-05-22T18:59:26.934Z,52.16
2019-05-22T19:01:55.679Z,51.81
2019-05-22T19:04:24.472Z,52.87
2019-05-22T19:06:55.880Z,53.18
2019-05-22T19:09:24.240Z,53.64
2019-05-22T19:11:53.156Z,54.57
2019-05-22T19:14:22.360Z,55.20
2019-05-22T19:16:51.180Z,55.93
2019-05-22T19:19:20.016Z,56.72
2019-05-22T19:21:48.824Z,57.69
2019-05-22T19:24:18.230Z,57.87
2019-05-22T19:26:47.440Z,58.24
2019-05-22T19:29:16.356Z,59.86
2019-05-22T19:31:44.908Z,60.37
2019-05-22T19:34:13.526Z,60.94
2019-05-22T19:36:42.461Z,61.93
2019-05-22T19:39:11.404Z,61.62
2019-05-22T19:41:40.428Z,63.69
2019-05-22T19:44:10.145Z,64.23
2019-05-22T19:46:39.282Z,64.77
2019-05-22T19:49:08.513Z,65.33
2019-05-22T19:51:37.450Z,66.13
2019-05-22T19:54:07.028Z,65.86
2019-05-22T19:56:35.936Z,66.59
2019-05-22T19:59:04.991Z,67.04
2019-05-22T20:01:33.720Z,67.14
2019-05-22T20:04:02.448Z,67.34
2019-05-22T20:06:31.660Z,67.54
2019-05-22T20:09:00.202Z,67.55
2019-05-22T20:11:29.122Z,68.26
2019-05-22T20:13:58.446Z,69.27
2019-05-22T20:16:27.073Z,69.21
2019-05-22T20:18:56.190Z,69.36
2019-05-22T20:21:25.683Z,69.52
2019-05-22T20:23:54.232Z,69.73
2019-05-22T20:26:22.939Z,69.71
2019-05-22T20:28:52.372Z,70.68
2019-05-22T20:31:21.155Z,70.75
2019-05-22T20:33:49.787Z,69.52
2019-05-22T20:36:18.798Z,69.98
2019-05-22T20:38:47.443Z,69.86
2019-05-22T20:41:17.166Z,69.17
2019-05-22T20:43:46.494Z,68.56
2019-05-22T20:46:17.886Z,66.38
2019-05-22T20:48:47.700Z,65.88
2019-05-22T20:51:17.531Z,65.17
2019-05-22T20:53:53.940Z,65.50
2019-05-22T20:56:20.212Z,65.08
2019-05-22T20:58:49.333Z,65.33
2019-05-22T21:01:18.382Z,65.73
2019-05-22T21:03:47.222Z,65.68
2019-05-22T21:06:18.840Z,66.05
2019-05-22T21:08:49.287Z,65.83
2019-05-22T21:11:21.719Z,66.22
2019-05-22T21:13:51.748Z,66.23
2019-05-22T21:16:21.162Z,67.13
2019-05-22T21:18:51.730Z,66.79
2019-05-22T21:21:21.570Z,66.92
2019-05-22T21:23:50.602Z,67.40
2019-05-22T21:26:19.821Z,67.33
2019-05-22T21:28:48.884Z,67.10
2019-05-22T21:31:19.396Z,67.17
2019-05-22T21:33:49.516Z,66.90
2019-05-22T21:36:19.330Z,67.71
2019-05-22T21:38:48.351Z,67.53
2019-05-22T21:41:19.895Z,68.01
2019-05-22T21:43:49.014Z,67.96
2019-05-22T21:46:18.126Z,67.95
2019-05-22T21:48:49.963Z,68.45
2019-05-22T21:51:18.599Z,69.23
2019-05-22T21:53:47.443Z,69.87
2019-05-22T21:56:16.634Z,69.81
2019-05-22T21:58:45.890Z,70.22
2019-05-22T22:01:26.592Z,70.51
2019-05-22T22:04:00.475Z,70.84
2019-05-22T22:06:33.202Z,71.44
2019-05-22T22:09:00.371Z,72.03
2019-05-22T22:11:29.601Z,72.79
2019-05-22T22:13:58.727Z,73.03
2019-05-22T22:16:27.259Z,73.16
2019-05-22T22:18:56.490Z,73.82
2019-05-22T22:21:25.603Z,73.89
2019-05-22T22:23:54.638Z,73.80
2019-05-22T22:26:25.889Z,74.10
2019-05-22T22:28:54.501Z,74.37
2019-05-22T22:31:25.574Z,74.78
2019-05-22T22:34:02.182Z,75.23
2019-05-22T22:36:31.632Z,75.48
2019-05-22T22:39:00.269Z,75.98
2019-05-22T22:41:29.679Z,75.56
2019-05-22T22:43:59.074Z,76.37
2019-05-22T22:46:38.359Z,76.10
2019-05-22T22:49:12.283Z,76.23
2019-05-22T22:51:41.796Z,76.72
2019-05-22T22:54:12.252Z,76.88
2019-05-22T22:56:41.305Z,76.92
2019-05-22T22:59:11.100Z,77.03
2019-05-22T23:01:41.329Z,77.50
2019-05-22T23:04:11.601Z,77.95
2019-05-22T23:06:40.634Z,78.17
2019-05-22T23:09:11.825Z,78.12
2019-05-22T23:11:42.841Z,78.69
2019-05-22T23:14:12.211Z,79.20
2019-05-22T23:16:41.123Z,79.29
2019-05-22T23:19:33.533Z,79.62
2019-05-22T23:22:04.853Z,79.68
2019-05-22T23:24:34.991Z,79.74
2019-05-22T23:27:05.872Z,80.21
2019-05-22T23:29:35.096Z,79.92
2019-05-22T23:32:05.944Z,80.19
2019-05-22T23:34:35.459Z,80.31
2019-05-22T23:37:06.184Z,80.93
2019-05-22T23:39:35.495Z,80.85
2019-05-22T23:42:11.958Z,81.09
2019-05-22T23:44:40.888Z,81.37
2019-05-22T23:47:10.352Z,81.30
2019-05-22T23:49:40.573Z,81.50
2019-05-22T23:52:11.684Z,81.23
2019-05-22T23:54:40.715Z,81.50
2019-05-22T23:57:12.332Z,81.34
2019-05-22T23:59:43.816Z,81.44
